sensor_id;sensor_type;location;lat;lon;timestamp;pressure;altitude;pressure_sealevel;temperature;humidity
68399;BME280;56258;52.196;13.868;2022-11-23T00:00:37;99967.97;;;21.60;35.28
68399;BME280;56258;52.196;13.868;2022-11-23T00:03:04;99964.22;;;21.68;35.29
68399;BME280;56258;52.196;13.868;2022-11-23T00:05:30;99970.44;;;21.75;34.92
68399;BME280;56258;52.196;13.868;2022-11-23T00:07:57;99965.84;;;21.75;34.66
68399;BME280;56258;52.196;13.868;2022-11-23T00:10:23;99963.78;;;21.71;35.32
68399;BME280;56258;52.196;13.868;2022-11-23T00:12:50;99978.53;;;21.75;35.15
68399;BME280;56258;52.196;13.868;2022-11-23T00:15:17;99968.16;;;21.72;34.69
68399;BME280;56258;52.196;13.868;2022-11-23T00:17:46;99968.59;;;21.69;35.09
68399;BME280;56258;52.196;13.868;2022-11-23T00:20:13;99965.38;;;21.92;34.25
68399;BME280;56258;52.196;13.868;2022-11-23T00:22:40;99963.72;;;21.91;34.19
68399;BME280;56258;52.196;13.868;2022-11-23T00:25:07;99977.94;;;21.73;35.00
68399;BME280;56258;52.196;13.868;2022-11-23T00:27:34;99981.94;;;21.57;35.41
68399;BME280;56258;52.196;13.868;2022-11-23T00:30:00;99975.75;;;21.43;35.03
68399;BME280;56258;52.196;13.868;2022-11-23T00:32:30;99975.56;;;21.32;35.22
68399;BME280;56258;52.196;13.868;2022-11-23T00:34:56;99978.03;;;21.20;35.79
68399;BME280;56258;52.196;13.868;2022-11-23T00:37:23;99984.28;;;21.07;35.21
68399;BME280;56258;52.196;13.868;2022-11-23T00:39:49;99979.69;;;21.01;35.87
68399;BME280;56258;52.196;13.868;2022-11-23T00:42:16;99984.47;;;20.92;36.03
68399;BME280;56258;52.196;13.868;2022-11-23T00:44:43;99984.50;;;20.86;35.70
68399;BME280;56258;52.196;13.868;2022-11-23T00:47:09;99981.34;;;20.82;36.22
68399;BME280;56258;52.196;13.868;2022-11-23T00:49:36;99982.63;;;20.73;35.84
68399;BME280;56258;52.196;13.868;2022-11-23T00:52:03;99974.91;;;20.70;35.54
68399;BME280;56258;52.196;13.868;2022-11-23T00:54:29;99979.06;;;20.66;36.10
68399;BME280;56258;52.196;13.868;2022-11-23T00:56:56;99975.13;;;20.62;35.75
68399;BME280;56258;52.196;13.868;2022-11-23T00:59:22;99979.03;;;20.59;35.80
68399;BME280;56258;52.196;13.868;2022-11-23T01:01:49;99973.84;;;20.58;35.59
68399;BME280;56258;52.196;13.868;2022-11-23T01:04:16;99969.28;;;20.52;35.93
68399;BME280;56258;52.196;13.868;2022-11-23T01:06:42;99978.44;;;20.51;35.74
68399;BME280;56258;52.196;13.868;2022-11-23T01:09:17;99976.94;;;20.48;35.93
68399;BME280;56258;52.196;13.868;2022-11-23T01:11:44;99966.16;;;20.48;35.93
68399;BME280;56258;52.196;13.868;2022-11-23T01:14:11;99972.78;;;20.46;35.83
68399;BME280;56258;52.196;13.868;2022-11-23T01:16:39;99968.03;;;20.48;35.81
68399;BME280;56258;52.196;13.868;2022-11-23T01:19:10;99963.88;;;20.45;36.08
68399;BME280;56258;52.196;13.868;2022-11-23T01:21:37;99977.34;;;20.38;35.91
68399;BME280;56258;52.196;13.868;2022-11-23T01:24:19;99971.34;;;20.43;36.19
68399;BME280;56258;52.196;13.868;2022-11-23T01:26:50;99972.78;;;20.39;35.86
68399;BME280;56258;52.196;13.868;2022-11-23T01:29:18;99961.16;;;20.38;36.15
68399;BME280;56258;52.196;13.868;2022-11-23T01:31:44;99970.28;;;20.37;36.12
68399;BME280;56258;52.196;13.868;2022-11-23T01:34:12;99972.53;;;20.34;35.68
68399;BME280;56258;52.196;13.868;2022-11-23T01:36:40;99970.25;;;20.31;35.80
68399;BME280;56258;52.196;13.868;2022-11-23T01:39:07;99962.16;;;20.31;36.32
68399;BME280;56258;52.196;13.868;2022-11-23T01:41:36;99966.09;;;20.28;36.01
68399;BME280;56258;52.196;13.868;2022-11-23T01:44:29;99961.53;;;20.29;35.79
68399;BME280;56258;52.196;13.868;2022-11-23T01:47:01;99967.53;;;20.24;36.05
68399;BME280;56258;52.196;13.868;2022-11-23T01:49:32;99971.47;;;20.22;36.24
68399;BME280;56258;52.196;13.868;2022-11-23T01:52:06;99970.22;;;20.24;36.13
68399;BME280;56258;52.196;13.868;2022-11-23T01:54:45;99973.34;;;20.21;36.29
68399;BME280;56258;52.196;13.868;2022-11-23T01:57:35;99974.59;;;20.19;35.98
68399;BME280;56258;52.196;13.868;2022-11-23T02:00:04;99973.13;;;20.16;36.38
68399;BME280;56258;52.196;13.868;2022-11-23T02:02:31;99969.78;;;20.14;36.31
68399;BME280;56258;52.196;13.868;2022-11-23T02:05:00;99972.06;;;20.10;36.16
68399;BME280;56258;52.196;13.868;2022-11-23T02:07:27;99983.69;;;20.11;36.25
68399;BME280;56258;52.196;13.868;2022-11-23T02:09:54;99989.06;;;20.11;36.50
68399;BME280;56258;52.196;13.868;2022-11-23T02:12:21;99986.59;;;20.03;36.10
68399;BME280;56258;52.196;13.868;2022-11-23T02:14:48;99995.91;;;20.07;35.93
68399;BME280;56258;52.196;13.868;2022-11-23T02:17:15;99992.81;;;20.03;36.53
68399;BME280;56258;52.196;13.868;2022-11-23T02:25:24;99991.34;;;20.07;36.27
68399;BME280;56258;52.196;13.868;2022-11-23T02:27:54;99992.97;;;20.02;36.24
68399;BME280;56258;52.196;13.868;2022-11-23T02:30:21;99984.88;;;20.02;36.08
68399;BME280;56258;52.196;13.868;2022-11-23T02:32:48;99988.25;;;20.04;36.18
68399;BME280;56258;52.196;13.868;2022-11-23T02:35:14;99988.66;;;20.07;36.14
68399;BME280;56258;52.196;13.868;2022-11-23T02:37:41;99990.72;;;20.05;36.16
68399;BME280;56258;52.196;13.868;2022-11-23T02:40:16;99999.66;;;20.06;36.41
68399;BME280;56258;52.196;13.868;2022-11-23T02:42:44;100003.78;;;20.02;35.94
68399;BME280;56258;52.196;13.868;2022-11-23T02:45:21;100011.69;;;20.03;35.81
68399;BME280;56258;52.196;13.868;2022-11-23T02:47:48;100009.38;;;20.00;36.37
68399;BME280;56258;52.196;13.868;2022-11-23T02:50:15;100004.81;;;20.01;36.05
68399;BME280;56258;52.196;13.868;2022-11-23T02:52:42;100005.63;;;19.95;36.16
68399;BME280;56258;52.196;13.868;2022-11-23T02:55:09;100004.81;;;20.01;36.52
68399;BME280;56258;52.196;13.868;2022-11-23T02:57:36;100008.94;;;19.97;36.40
68399;BME280;56258;52.196;13.868;2022-11-23T03:00:03;100011.03;;;19.95;36.49
68399;BME280;56258;52.196;13.868;2022-11-23T03:02:31;100010.19;;;19.94;36.36
68399;BME280;56258;52.196;13.868;2022-11-23T03:04:58;100004.38;;;19.97;36.60
68399;BME280;56258;52.196;13.868;2022-11-23T03:07:25;100011.44;;;19.92;36.22
68399;BME280;56258;52.196;13.868;2022-11-23T03:09:51;100021.00;;;19.94;36.46
68399;BME280;56258;52.196;13.868;2022-11-23T03:12:18;100017.84;;;19.91;36.67
68399;BME280;56258;52.196;13.868;2022-11-23T03:14:45;100020.16;;;19.94;36.36
68399;BME280;56258;52.196;13.868;2022-11-23T03:17:12;100013.47;;;19.90;36.47
68399;BME280;56258;52.196;13.868;2022-11-23T03:19:38;100019.91;;;19.89;36.17
68399;BME280;56258;52.196;13.868;2022-11-23T03:22:05;100020.34;;;19.92;36.55
68399;BME280;56258;52.196;13.868;2022-11-23T03:24:32;100018.44;;;19.86;36.71
68399;BME280;56258;52.196;13.868;2022-11-23T03:26:59;100016.19;;;19.90;36.53
68399;BME280;56258;52.196;13.868;2022-11-23T03:29:26;100008.06;;;19.90;36.69
68399;BME280;56258;52.196;13.868;2022-11-23T03:31:53;100016.84;;;19.92;36.28
68399;BME280;56258;52.196;13.868;2022-11-23T03:34:20;100013.09;;;19.93;36.17
68399;BME280;56258;52.196;13.868;2022-11-23T03:36:47;100016.19;;;19.90;36.13
68399;BME280;56258;52.196;13.868;2022-11-23T03:39:14;100012.06;;;19.94;36.36
68399;BME280;56258;52.196;13.868;2022-11-23T03:41:40;100017.47;;;19.94;36.28
68399;BME280;56258;52.196;13.868;2022-11-23T03:44:07;100022.03;;;19.93;36.27
68399;BME280;56258;52.196;13.868;2022-11-23T03:46:33;100009.56;;;19.92;36.15
68399;BME280;56258;52.196;13.868;2022-11-23T03:49:00;100013.94;;;19.93;36.35
68399;BME280;56258;52.196;13.868;2022-11-23T03:51:27;100015.13;;;19.91;36.71
68399;BME280;56258;52.196;13.868;2022-11-23T03:53:53;100011.41;;;19.85;36.52
68399;BME280;56258;52.196;13.868;2022-11-23T03:56:20;100015.53;;;19.88;36.37
68399;BME280;56258;52.196;13.868;2022-11-23T03:58:46;100017.63;;;19.86;36.40
68399;BME280;56258;52.196;13.868;2022-11-23T04:01:13;100012.66;;;19.89;36.08
68399;BME280;56258;52.196;13.868;2022-11-23T04:03:40;100014.72;;;19.87;36.27
68399;BME280;56258;52.196;13.868;2022-11-23T04:06:06;100007.66;;;19.86;36.25
68399;BME280;56258;52.196;13.868;2022-11-23T04:08:33;100011.19;;;19.87;36.45
68399;BME280;56258;52.196;13.868;2022-11-23T04:10:59;100019.69;;;19.90;36.25
68399;BME280;56258;52.196;13.868;2022-11-23T04:13:26;100022.41;;;19.90;36.11
68399;BME280;56258;52.196;13.868;2022-11-23T04:15:53;100019.31;;;19.93;35.99
68399;BME280;56258;52.196;13.868;2022-11-23T04:18:19;100019.06;;;19.88;36.11
68399;BME280;56258;52.196;13.868;2022-11-23T04:20:46;100029.91;;;19.95;36.11
68399;BME280;56258;52.196;13.868;2022-11-23T04:23:12;100026.59;;;19.93;35.92
68399;BME280;56258;52.196;13.868;2022-11-23T04:25:39;100024.03;;;19.85;36.45
68399;BME280;56258;52.196;13.868;2022-11-23T04:28:06;100019.53;;;19.92;35.94
68399;BME280;56258;52.196;13.868;2022-11-23T04:30:32;100013.72;;;19.95;36.26
68399;BME280;56258;52.196;13.868;2022-11-23T04:32:59;100017.66;;;19.92;36.30
68399;BME280;56258;52.196;13.868;2022-11-23T04:35:25;100017.41;;;19.87;36.48
68399;BME280;56258;52.196;13.868;2022-11-23T04:37:52;100023.84;;;19.86;36.51
68399;BME280;56258;52.196;13.868;2022-11-23T04:40:18;100023.22;;;19.84;36.07
68399;BME280;56258;52.196;13.868;2022-11-23T04:42:45;100022.19;;;19.85;36.44
68399;BME280;56258;52.196;13.868;2022-11-23T04:45:12;100025.91;;;19.84;36.15
68399;BME280;56258;52.196;13.868;2022-11-23T04:47:39;100022.78;;;19.80;36.32
68399;BME280;56258;52.196;13.868;2022-11-23T04:50:05;100030.88;;;19.80;36.26
68399;BME280;56258;52.196;13.868;2022-11-23T04:52:32;100032.13;;;19.85;36.07
68399;BME280;56258;52.196;13.868;2022-11-23T04:54:59;100037.53;;;19.85;36.50
68399;BME280;56258;52.196;13.868;2022-11-23T04:57:25;100036.06;;;19.82;36.22
68399;BME280;56258;52.196;13.868;2022-11-23T04:59:52;100039.59;;;19.83;36.47
68399;BME280;56258;52.196;13.868;2022-11-23T05:02:18;100030.69;;;19.82;36.50
68399;BME280;56258;52.196;13.868;2022-11-23T05:04:45;100025.09;;;19.84;36.22
68399;BME280;56258;52.196;13.868;2022-11-23T05:07:12;100033.19;;;19.84;36.33
68399;BME280;56258;52.196;13.868;2022-11-23T05:09:38;100033.59;;;19.80;36.42
68399;BME280;56258;52.196;13.868;2022-11-23T05:12:05;100038.16;;;19.87;36.19
68399;BME280;56258;52.196;13.868;2022-11-23T05:14:32;100033.59;;;19.87;36.61
68399;BME280;56258;52.196;13.868;2022-11-23T05:16:58;100028.41;;;19.86;36.02
68399;BME280;56258;52.196;13.868;2022-11-23T05:19:25;100034.44;;;19.88;36.19
68399;BME280;56258;52.196;13.868;2022-11-23T05:21:52;100028.81;;;19.89;36.07
68399;BME280;56258;52.196;13.868;2022-11-23T05:24:18;100027.16;;;19.88;36.26
68399;BME280;56258;52.196;13.868;2022-11-23T05:26:45;100021.78;;;19.88;36.30
68399;BME280;56258;52.196;13.868;2022-11-23T05:29:11;100027.16;;;19.88;36.17
68399;BME280;56258;52.196;13.868;2022-11-23T05:31:38;100018.44;;;19.86;36.57
68399;BME280;56258;52.196;13.868;2022-11-23T05:34:04;100020.31;;;19.86;36.30
68399;BME280;56258;52.196;13.868;2022-11-23T05:36:31;100020.66;;;19.76;36.61
68399;BME280;56258;52.196;13.868;2022-11-23T05:38:57;100024.25;;;19.83;36.45
68399;BME280;56258;52.196;13.868;2022-11-23T05:41:24;100015.97;;;19.85;36.38
68399;BME280;56258;52.196;13.868;2022-11-23T05:43:51;100012.44;;;19.84;36.70
68399;BME280;56258;52.196;13.868;2022-11-23T05:46:17;100019.47;;;19.85;36.71
68399;BME280;56258;52.196;13.868;2022-11-23T05:48:44;100011.59;;;19.90;36.50
68399;BME280;56258;52.196;13.868;2022-11-23T05:51:11;100008.53;;;19.93;36.46
68399;BME280;56258;52.196;13.868;2022-11-23T05:53:37;100012.44;;;19.91;36.43
68399;BME280;56258;52.196;13.868;2022-11-23T05:56:04;100016.84;;;19.92;36.91
68399;BME280;56258;52.196;13.868;2022-11-23T05:58:31;100012.25;;;19.92;36.61
68399;BME280;56258;52.196;13.868;2022-11-23T06:00:59;99998.56;;;19.94;36.57
68399;BME280;56258;52.196;13.868;2022-11-23T06:03:26;100001.69;;;19.97;36.48
68399;BME280;56258;52.196;13.868;2022-11-23T06:05:53;100001.91;;;19.96;36.80
68399;BME280;56258;52.196;13.868;2022-11-23T06:08:19;100001.69;;;19.97;36.63
68399;BME280;56258;52.196;13.868;2022-11-23T06:10:46;100003.56;;;19.97;36.72
68399;BME280;56258;52.196;13.868;2022-11-23T06:13:12;99997.94;;;19.92;36.69
68399;BME280;56258;52.196;13.868;2022-11-23T06:15:39;100001.03;;;19.89;36.82
68399;BME280;56258;52.196;13.868;2022-11-23T06:18:06;100006.03;;;19.92;36.85
68399;BME280;56258;52.196;13.868;2022-11-23T06:20:32;100007.69;;;19.93;36.80
68399;BME280;56258;52.196;13.868;2022-11-23T06:22:59;99998.56;;;19.94;37.41
68399;BME280;56258;52.196;13.868;2022-11-23T06:25:25;100000.88;;;19.97;37.46
68399;BME280;56258;52.196;13.868;2022-11-23T06:27:56;100003.19;;;20.13;37.45
68399;BME280;56258;52.196;13.868;2022-11-23T06:30:24;100005.28;;;20.11;37.48
68399;BME280;56258;52.196;13.868;2022-11-23T06:32:52;100004.22;;;20.12;36.71
68399;BME280;56258;52.196;13.868;2022-11-23T06:35:19;100010.25;;;20.14;36.94
68399;BME280;56258;52.196;13.868;2022-11-23T06:37:50;100017.72;;;20.12;37.26
68399;BME280;56258;52.196;13.868;2022-11-23T06:40:17;100022.50;;;20.10;37.28
68399;BME280;56258;52.196;13.868;2022-11-23T06:42:44;100034.31;;;20.09;36.77
68399;BME280;56258;52.196;13.868;2022-11-23T06:45:11;100039.09;;;20.07;37.43
68399;BME280;56258;52.196;13.868;2022-11-23T06:47:38;100036.81;;;20.04;37.60
68399;BME280;56258;52.196;13.868;2022-11-23T06:50:05;100045.94;;;20.03;37.26
68399;BME280;56258;52.196;13.868;2022-11-23T06:52:32;100048.63;;;20.03;37.01
68399;BME280;56258;52.196;13.868;2022-11-23T06:54:58;100042.59;;;20.01;36.87
68399;BME280;56258;52.196;13.868;2022-11-23T06:57:25;100045.06;;;20.02;37.38
68399;BME280;56258;52.196;13.868;2022-11-23T06:59:51;100045.47;;;19.99;37.56
68399;BME280;56258;52.196;13.868;2022-11-23T07:02:18;100046.94;;;20.02;37.50
68399;BME280;56258;52.196;13.868;2022-11-23T07:04:45;100050.47;;;20.02;37.29
68399;BME280;56258;52.196;13.868;2022-11-23T07:07:11;100045.47;;;19.99;37.28
68399;BME280;56258;52.196;13.868;2022-11-23T07:09:38;100049.41;;;19.97;37.14
68399;BME280;56258;52.196;13.868;2022-11-23T07:12:05;100050.47;;;19.96;37.27
68399;BME280;56258;52.196;13.868;2022-11-23T07:14:31;100053.78;;;19.98;37.03
68399;BME280;56258;52.196;13.868;2022-11-23T07:16:58;100055.03;;;20.02;36.92
68399;BME280;56258;52.196;13.868;2022-11-23T07:19:25;100060.00;;;19.98;36.94
68399;BME280;56258;52.196;13.868;2022-11-23T07:21:51;100058.78;;;20.01;37.32
68399;BME280;56258;52.196;13.868;2022-11-23T07:24:18;100059.19;;;19.98;36.75
68399;BME280;56258;52.196;13.868;2022-11-23T07:26:44;100063.53;;;19.99;37.11
68399;BME280;56258;52.196;13.868;2022-11-23T07:29:11;100064.97;;;19.95;37.17
68399;BME280;56258;52.196;13.868;2022-11-23T07:31:38;100069.53;;;19.94;36.88
68399;BME280;56258;52.196;13.868;2022-11-23T07:34:04;100070.38;;;19.95;37.22
68399;BME280;56258;52.196;13.868;2022-11-23T07:36:31;100074.97;;;20.01;36.82
68399;BME280;56258;52.196;13.868;2022-11-23T07:38:58;100084.50;;;19.97;36.77
68399;BME280;56258;52.196;13.868;2022-11-23T07:41:25;100075.56;;;19.96;37.32
68399;BME280;56258;52.196;13.868;2022-11-23T07:43:53;100084.72;;;20.02;36.44
68399;BME280;56258;52.196;13.868;2022-11-23T07:46:20;100084.13;;;20.06;36.53
68399;BME280;56258;52.196;13.868;2022-11-23T07:48:46;100087.03;;;20.05;36.47
68399;BME280;56258;52.196;13.868;2022-11-23T07:51:13;100091.00;;;20.09;36.53
68399;BME280;56258;52.196;13.868;2022-11-23T07:53:41;100082.69;;;20.10;36.91
68399;BME280;56258;52.196;13.868;2022-11-23T07:56:08;100083.59;;;20.24;36.29
68399;BME280;56258;52.196;13.868;2022-11-23T07:58:34;100087.56;;;20.28;36.49
68399;BME280;56258;52.196;13.868;2022-11-23T08:01:01;100089.63;;;20.26;36.42
68399;BME280;56258;52.196;13.868;2022-11-23T08:03:27;100086.53;;;20.29;36.79
68399;BME280;56258;52.196;13.868;2022-11-23T08:05:55;100080.09;;;20.37;36.65
68399;BME280;56258;52.196;13.868;2022-11-23T08:08:22;100083.53;;;20.59;36.03
68399;BME280;56258;52.196;13.868;2022-11-23T08:10:48;100097.97;;;20.92;35.50
68399;BME280;56258;52.196;13.868;2022-11-23T08:13:20;100092.63;;;21.25;34.89
68399;BME280;56258;52.196;13.868;2022-11-23T08:15:47;100092.00;;;21.30;34.68
68399;BME280;56258;52.196;13.868;2022-11-23T08:18:22;100098.88;;;21.46;34.20
68399;BME280;56258;52.196;13.868;2022-11-23T08:20:48;100097.00;;;21.60;34.12
68399;BME280;56258;52.196;13.868;2022-11-23T08:23:15;100094.25;;;21.79;33.42
68399;BME280;56258;52.196;13.868;2022-11-23T08:25:42;100093.19;;;21.87;33.71
68399;BME280;56258;52.196;13.868;2022-11-23T08:28:08;100094.47;;;21.71;33.27
68399;BME280;56258;52.196;13.868;2022-11-23T08:30:35;100098.66;;;21.61;33.76
68399;BME280;56258;52.196;13.868;2022-11-23T08:33:04;100092.81;;;21.50;33.91
68399;BME280;56258;52.196;13.868;2022-11-23T08:35:33;100090.75;;;21.46;34.11
68399;BME280;56258;52.196;13.868;2022-11-23T08:38:00;100092.84;;;21.37;34.03
68399;BME280;56258;52.196;13.868;2022-11-23T08:40:27;100091.78;;;21.38;34.03
68399;BME280;56258;52.196;13.868;2022-11-23T08:42:54;100089.91;;;21.52;33.99
68399;BME280;56258;52.196;13.868;2022-11-23T08:45:21;100090.53;;;21.67;33.31
68399;BME280;56258;52.196;13.868;2022-11-23T08:47:48;100092.41;;;21.67;33.39
68399;BME280;56258;52.196;13.868;2022-11-23T08:50:14;100094.72;;;21.43;33.76
68399;BME280;56258;52.196;13.868;2022-11-23T08:52:41;100090.09;;;21.24;34.23
68399;BME280;56258;52.196;13.868;2022-11-23T08:55:08;100087.81;;;21.14;34.22
68399;BME280;56258;52.196;13.868;2022-11-23T08:57:35;100092.84;;;21.37;34.34
68399;BME280;56258;52.196;13.868;2022-11-23T09:00:03;100097.19;;;21.51;33.72
68399;BME280;56258;52.196;13.868;2022-11-23T09:02:30;100095.94;;;21.27;34.41
68399;BME280;56258;52.196;13.868;2022-11-23T09:04:57;100093.19;;;21.01;34.86
68399;BME280;56258;52.196;13.868;2022-11-23T09:07:24;100097.53;;;20.89;35.04
68399;BME280;56258;52.196;13.868;2022-11-23T09:09:50;100099.41;;;20.88;34.88
68399;BME280;56258;52.196;13.868;2022-11-23T09:12:17;100103.56;;;20.91;35.06
68399;BME280;56258;52.196;13.868;2022-11-23T09:14:44;100100.66;;;20.92;34.53
68399;BME280;56258;52.196;13.868;2022-11-23T09:17:10;100102.53;;;20.92;34.82
68399;BME280;56258;52.196;13.868;2022-11-23T09:19:37;100104.41;;;20.91;34.77
68399;BME280;56258;52.196;13.868;2022-11-23T09:22:03;100111.03;;;20.82;35.03
68399;BME280;56258;52.196;13.868;2022-11-23T09:24:30;100110.56;;;20.72;34.98
68399;BME280;56258;52.196;13.868;2022-11-23T09:26:57;100110.13;;;20.55;34.92
68399;BME280;56258;52.196;13.868;2022-11-23T09:29:24;100113.25;;;20.52;35.65
68399;BME280;56258;52.196;13.868;2022-11-23T09:31:51;100110.34;;;20.54;35.74
68399;BME280;56258;52.196;13.868;2022-11-23T09:34:18;100098.50;;;20.55;35.65
68399;BME280;56258;52.196;13.868;2022-11-23T09:36:45;100095.19;;;20.66;35.49
68399;BME280;56258;52.196;13.868;2022-11-23T09:39:12;100096.91;;;20.80;34.97
68399;BME280;56258;52.196;13.868;2022-11-23T09:41:53;100107.88;;;20.72;35.07
68399;BME280;56258;52.196;13.868;2022-11-23T09:50:41;100110.03;;;21.16;34.85
68399;BME280;56258;52.196;13.868;2022-11-23T09:53:15;100103.59;;;21.17;34.38
68399;BME280;56258;52.196;13.868;2022-11-23T09:55:46;100091.34;;;21.08;34.71
68399;BME280;56258;52.196;13.868;2022-11-23T09:58:17;100096.72;;;21.02;35.08
68399;BME280;56258;52.196;13.868;2022-11-23T10:01:00;100098.78;;;20.93;35.42
68399;BME280;56258;52.196;13.868;2022-11-23T10:03:32;100093.59;;;20.91;35.74
68399;BME280;56258;52.196;13.868;2022-11-23T10:06:19;100091.97;;;20.97;34.81
68399;BME280;56258;52.196;13.868;2022-11-23T10:25:49;100091.97;;;21.10;34.13
68399;BME280;56258;52.196;13.868;2022-11-23T10:28:19;100085.53;;;21.11;34.58
68399;BME280;56258;52.196;13.868;2022-11-23T10:30:55;100093.41;;;21.06;34.87
68399;BME280;56258;52.196;13.868;2022-11-23T10:33:53;100091.13;;;21.10;34.50
68399;BME280;56258;52.196;13.868;2022-11-23T10:36:17;100087.59;;;21.03;34.60
68399;BME280;56258;52.196;13.868;2022-11-23T10:38:48;100077.59;;;21.03;34.72
68399;BME280;56258;52.196;13.868;2022-11-23T10:41:16;100086.53;;;21.04;34.74
68399;BME280;56258;52.196;13.868;2022-11-23T10:44:05;100080.94;;;20.98;34.90
68399;BME280;56258;52.196;13.868;2022-11-23T10:46:39;100078.66;;;21.02;34.35
68399;BME280;56258;52.196;13.868;2022-11-23T10:52:00;100077.78;;;20.95;34.76
68399;BME280;56258;52.196;13.868;2022-11-23T10:57:19;100071.34;;;20.76;34.87
68399;BME280;56258;52.196;13.868;2022-11-23T11:00:04;100065.91;;;20.69;35.72
68399;BME280;56258;52.196;13.868;2022-11-23T11:02:47;100075.25;;;20.67;35.03
68399;BME280;56258;52.196;13.868;2022-11-23T11:08:17;100063.81;;;20.58;35.63
68399;BME280;56258;52.196;13.868;2022-11-23T11:11:23;100069.81;;;20.54;35.80
68399;BME280;56258;52.196;13.868;2022-11-23T11:14:13;100070.25;;;20.51;35.77
68399;BME280;56258;52.196;13.868;2022-11-23T11:16:51;100069.59;;;20.49;35.20
68399;BME280;56258;52.196;13.868;2022-11-23T11:21:56;100071.91;;;20.52;35.58
68399;BME280;56258;52.196;13.868;2022-11-23T11:24:30;100064.84;;;20.57;35.92
68399;BME280;56258;52.196;13.868;2022-11-23T11:27:00;100064.41;;;20.60;35.37
68399;BME280;56258;52.196;13.868;2022-11-23T11:34:48;100060.72;;;20.61;35.15
68399;BME280;56258;52.196;13.868;2022-11-23T11:37:38;100056.16;;;20.62;35.34
68399;BME280;56258;52.196;13.868;2022-11-23T11:40:22;100047.84;;;20.63;35.54
68399;BME280;56258;52.196;13.868;2022-11-23T11:42:56;100060.09;;;20.66;35.14
68399;BME280;56258;52.196;13.868;2022-11-23T11:45:39;100055.72;;;20.72;35.15
68399;BME280;56258;52.196;13.868;2022-11-23T11:50:56;100049.53;;;20.78;35.26
68399;BME280;56258;52.196;13.868;2022-11-23T11:53:32;100045.56;;;20.80;34.79
68399;BME280;56258;52.196;13.868;2022-11-23T11:56:06;100049.53;;;20.84;35.09
68399;BME280;56258;52.196;13.868;2022-11-23T11:58:37;100053.25;;;20.83;35.13
68399;BME280;56258;52.196;13.868;2022-11-23T12:04:42;100054.50;;;20.94;34.92
68399;BME280;56258;52.196;13.868;2022-11-23T12:09:52;100048.50;;;20.92;34.95
68399;BME280;56258;52.196;13.868;2022-11-23T12:12:21;100046.81;;;20.91;34.91
68399;BME280;56258;52.196;13.868;2022-11-23T12:14:55;100044.97;;;20.91;34.90
68399;BME280;56258;52.196;13.868;2022-11-23T12:17:44;100047.44;;;20.93;34.82
68399;BME280;56258;52.196;13.868;2022-11-23T12:20:33;100041.63;;;20.89;35.52
68399;BME280;56258;52.196;13.868;2022-11-23T12:28:54;100047.22;;;20.81;35.53
68399;BME280;56258;52.196;13.868;2022-11-23T12:42:49;100047.44;;;20.73;35.17
68399;BME280;56258;52.196;13.868;2022-11-23T12:45:38;100044.50;;;20.68;35.49
68399;BME280;56258;52.196;13.868;2022-11-23T12:48:36;100049.28;;;20.66;35.53
68399;BME280;56258;52.196;13.868;2022-11-23T12:51:40;100048.47;;;20.65;35.66
68399;BME280;56258;52.196;13.868;2022-11-23T12:57:03;100062.16;;;20.64;35.44
68399;BME280;56258;52.196;13.868;2022-11-23T12:59:47;100056.34;;;20.67;35.31
68399;BME280;56258;52.196;13.868;2022-11-23T13:16:46;100057.81;;;20.63;35.76
68399;BME280;56258;52.196;13.868;2022-11-23T13:19:39;100062.59;;;20.61;35.65
68399;BME280;56258;52.196;13.868;2022-11-23T13:22:15;100053.22;;;20.57;36.13
68399;BME280;56258;52.196;13.868;2022-11-23T13:25:12;100053.63;;;20.54;36.02
68399;BME280;56258;52.196;13.868;2022-11-23T13:30:27;100051.13;;;20.52;35.47
68399;BME280;56258;52.196;13.868;2022-11-23T13:40:43;100057.28;;;20.39;36.07
68399;BME280;56258;52.196;13.868;2022-11-23T13:43:17;100056.25;;;20.40;35.84
68399;BME280;56258;52.196;13.868;2022-11-23T13:45:44;100053.75;;;20.39;35.89
68399;BME280;56258;52.196;13.868;2022-11-23T13:48:17;100060.38;;;20.36;36.06
68399;BME280;56258;52.196;13.868;2022-11-23T13:51:04;100060.00;;;20.39;36.08
68399;BME280;56258;52.196;13.868;2022-11-23T13:53:37;100052.94;;;20.38;35.68
68399;BME280;56258;52.196;13.868;2022-11-23T13:56:34;100054.38;;;20.41;35.65
68399;BME280;56258;52.196;13.868;2022-11-23T14:04:35;100064.84;;;20.51;35.92
68399;BME280;56258;52.196;13.868;2022-11-23T14:07:29;100058.63;;;20.63;35.33
68399;BME280;56258;52.196;13.868;2022-11-23T14:10:13;100065.69;;;20.64;35.42
68399;BME280;56258;52.196;13.868;2022-11-23T14:13:21;100063.84;;;20.65;35.69
68399;BME280;56258;52.196;13.868;2022-11-23T14:15:56;100064.41;;;20.60;35.70
68399;BME280;56258;52.196;13.868;2022-11-23T14:21:06;100061.91;;;20.46;35.87
68399;BME280;56258;52.196;13.868;2022-11-23T14:23:57;100067.50;;;20.44;35.71
68399;BME280;56258;52.196;13.868;2022-11-23T14:36:09;100082.22;;;20.42;36.00
68399;BME280;56258;52.196;13.868;2022-11-23T14:39:00;100076.81;;;20.42;36.31
68399;BME280;56258;52.196;13.868;2022-11-23T14:41:31;100075.59;;;20.44;35.80
68399;BME280;56258;52.196;13.868;2022-11-23T14:44:04;100069.38;;;20.44;36.03
68399;BME280;56258;52.196;13.868;2022-11-23T14:46:31;100074.97;;;20.42;36.20
68399;BME280;56258;52.196;13.868;2022-11-23T14:49:05;100081.97;;;20.36;36.37
68399;BME280;56258;52.196;13.868;2022-11-23T14:51:34;100087.16;;;20.31;36.48
68399;BME280;56258;52.196;13.868;2022-11-23T14:54:08;100079.88;;;20.32;36.62